sensor_id;sensor_type;location;lat;lon;timestamp;temperature;humidity
56103;DHT22;41970;48.774;9.280;2024-01-15T00:02:05;-0.30;99.90
56103;DHT22;41970;48.774;9.280;2024-01-15T00:04:39;-0.20;99.90
56103;DHT22;41970;48.774;9.280;2024-01-15T00:07:05;-0.20;99.90
56103;DHT22;41970;48.774;9.280;2024-01-15T00:09:31;-0.10;99.90
56103;DHT22;41970;48.774;9.280;2024-01-15T00:11:57;-0.10;99.90
56103;DHT22;41970;48.774;9.280;2024-01-15T00:14:23;-0.10;99.90
56103;DHT22;41970;48.774;9.280;2024-01-15T00:16:49;0.00;99.90
56103;DHT22;41970;48.774;9.280;2024-01-15T00:19:17;0.10;99.90
56103;DHT22;41970;48.774;9.280;2024-01-15T00:21:44;0.10;99.90
56103;DHT22;41970;48.774;9.280;2024-01-15T00:24:10;0.20;99.90
56103;DHT22;41970;48.774;9.280;2024-01-15T00:26:36;0.20;99.90
56103;DHT22;41970;48.774;9.280;2024-01-15T00:29:02;0.20;99.90
56103;DHT22;41970;48.774;9.280;2024-01-15T00:31:29;0.10;99.90
56103;DHT22;41970;48.774;9.280;2024-01-15T00:33:56;0.20;99.90
56103;DHT22;41970;48.774;9.280;2024-01-15T00:36:23;0.30;99.90
56103;DHT22;41970;48.774;9.280;2024-01-15T00:38:48;0.40;99.90
56103;DHT22;41970;48.774;9.280;2024-01-15T00:41:15;0.50;99.90
56103;DHT22;41970;48.774;9.280;2024-01-15T00:43:40;0.60;99.90
56103;DHT22;41970;48.774;9.280;2024-01-15T00:46:06;0.60;99.90
56103;DHT22;41970;48.774;9.280;2024-01-15T00:48:32;0.40;99.90
56103;DHT22;41970;48.774;9.280;2024-01-15T00:50:58;0.30;99.90
56103;DHT22;41970;48.774;9.280;2024-01-15T00:53:25;0.30;99.90
56103;DHT22;41970;48.774;9.280;2024-01-15T00:55:51;0.50;99.90
56103;DHT22;41970;48.774;9.280;2024-01-15T00:58:16;0.30;99.90
56103;DHT22;41970;48.774;9.280;2024-01-15T01:00:42;0.40;99.90
56103;DHT22;41970;48.774;9.280;2024-01-15T01:03:08;0.40;99.90
56103;DHT22;41970;48.774;9.280;2024-01-15T01:05:34;0.20;99.90
56103;DHT22;41970;48.774;9.280;2024-01-15T01:08:00;0.00;99.90
56103;DHT22;41970;48.774;9.280;2024-01-15T01:10:27;-0.10;99.90
56103;DHT22;41970;48.774;9.280;2024-01-15T01:12:52;0.00;99.90
56103;DHT22;41970;48.774;9.280;2024-01-15T01:15:18;0.00;99.90
56103;DHT22;41970;48.774;9.280;2024-01-15T01:17:44;0.00;99.90
56103;DHT22;41970;48.774;9.280;2024-01-15T01:20:10;0.00;99.90
56103;DHT22;41970;48.774;9.280;2024-01-15T01:22:36;-0.10;99.90
56103;DHT22;41970;48.774;9.280;2024-01-15T01:25:02;-0.20;99.90
56103;DHT22;41970;48.774;9.280;2024-01-15T01:27:28;-0.30;99.90
56103;DHT22;41970;48.774;9.280;2024-01-15T01:29:54;-0.30;99.90
56103;DHT22;41970;48.774;9.280;2024-01-15T01:32:20;-0.30;99.90
56103;DHT22;41970;48.774;9.280;2024-01-15T01:34:45;-0.20;99.90
56103;DHT22;41970;48.774;9.280;2024-01-15T01:37:11;-0.20;99.90
56103;DHT22;41970;48.774;9.280;2024-01-15T01:39:44;-0.40;99.90
56103;DHT22;41970;48.774;9.280;2024-01-15T01:42:10;-0.40;99.90
56103;DHT22;41970;48.774;9.280;2024-01-15T01:44:37;-0.40;99.90
56103;DHT22;41970;48.774;9.280;2024-01-15T01:47:03;-0.60;99.90
56103;DHT22;41970;48.774;9.280;2024-01-15T01:49:29;-0.60;99.90
56103;DHT22;41970;48.774;9.280;2024-01-15T01:51:57;-0.70;99.90
56103;DHT22;41970;48.774;9.280;2024-01-15T01:54:25;-0.70;99.90
56103;DHT22;41970;48.774;9.280;2024-01-15T01:56:51;-0.60;99.90
56103;DHT22;41970;48.774;9.280;2024-01-15T01:59:17;-0.40;99.90
56103;DHT22;41970;48.774;9.280;2024-01-15T02:01:44;-0.30;99.90
56103;DHT22;41970;48.774;9.280;2024-01-15T02:04:11;-0.40;99.90
56103;DHT22;41970;48.774;9.280;2024-01-15T02:06:37;-0.30;99.90
56103;DHT22;41970;48.774;9.280;2024-01-15T02:09:03;-0.20;99.90
56103;DHT22;41970;48.774;9.280;2024-01-15T02:11:31;-0.10;99.90
56103;DHT22;41970;48.774;9.280;2024-01-15T02:13:57;-0.20;99.90
56103;DHT22;41970;48.774;9.280;2024-01-15T02:16:22;-0.30;99.90
56103;DHT22;41970;48.774;9.280;2024-01-15T02:18:48;-0.20;99.90
56103;DHT22;41970;48.774;9.280;2024-01-15T02:21:14;-0.10;99.90
56103;DHT22;41970;48.774;9.280;2024-01-15T02:23:40;0.00;99.90
56103;DHT22;41970;48.774;9.280;2024-01-15T02:26:06;0.20;99.90
56103;DHT22;41970;48.774;9.280;2024-01-15T02:28:33;0.00;99.90
56103;DHT22;41970;48.774;9.280;2024-01-15T02:30:59;0.10;99.90
56103;DHT22;41970;48.774;9.280;2024-01-15T02:33:25;0.00;99.90
56103;DHT22;41970;48.774;9.280;2024-01-15T02:35:51;0.00;99.90
56103;DHT22;41970;48.774;9.280;2024-01-15T02:38:17;0.00;99.90
56103;DHT22;41970;48.774;9.280;2024-01-15T02:40:44;0.10;99.90
56103;DHT22;41970;48.774;9.280;2024-01-15T02:43:10;0.20;99.90
56103;DHT22;41970;48.774;9.280;2024-01-15T02:45:36;0.20;99.90
56103;DHT22;41970;48.774;9.280;2024-01-15T02:48:02;0.30;99.90
56103;DHT22;41970;48.774;9.280;2024-01-15T02:50:28;0.50;99.90
56103;DHT22;41970;48.774;9.280;2024-01-15T02:52:54;0.50;99.90
56103;DHT22;41970;48.774;9.280;2024-01-15T02:55:19;0.60;99.90
56103;DHT22;41970;48.774;9.280;2024-01-15T02:57:45;0.60;99.90
56103;DHT22;41970;48.774;9.280;2024-01-15T03:00:11;0.70;99.90
56103;DHT22;41970;48.774;9.280;2024-01-15T03:02:38;0.70;99.90
56103;DHT22;41970;48.774;9.280;2024-01-15T03:05:09;0.60;99.90
56103;DHT22;41970;48.774;9.280;2024-01-15T03:07:35;0.60;99.90
56103;DHT22;41970;48.774;9.280;2024-01-15T03:10:01;0.50;99.90
56103;DHT22;41970;48.774;9.280;2024-01-15T03:12:27;0.60;99.90
56103;DHT22;41970;48.774;9.280;2024-01-15T03:14:53;0.40;99.90
56103;DHT22;41970;48.774;9.280;2024-01-15T03:17:19;0.30;99.90
56103;DHT22;41970;48.774;9.280;2024-01-15T03:19:45;0.30;99.90
56103;DHT22;41970;48.774;9.280;2024-01-15T03:22:10;0.20;99.90
56103;DHT22;41970;48.774;9.280;2024-01-15T03:24:36;0.10;99.90
56103;DHT22;41970;48.774;9.280;2024-01-15T03:27:03;-0.10;99.90
56103;DHT22;41970;48.774;9.280;2024-01-15T03:29:28;-0.20;99.90
56103;DHT22;41970;48.774;9.280;2024-01-15T03:31:54;-0.10;99.90
56103;DHT22;41970;48.774;9.280;2024-01-15T03:34:20;0.00;99.90
56103;DHT22;41970;48.774;9.280;2024-01-15T03:36:45;-0.10;99.90
56103;DHT22;41970;48.774;9.280;2024-01-15T03:39:11;-0.20;99.90
56103;DHT22;41970;48.774;9.280;2024-01-15T03:41:37;-0.30;99.90
56103;DHT22;41970;48.774;9.280;2024-01-15T03:44:03;-0.40;99.90
56103;DHT22;41970;48.774;9.280;2024-01-15T03:46:29;-0.40;99.90
56103;DHT22;41970;48.774;9.280;2024-01-15T03:48:55;-0.50;99.90
56103;DHT22;41970;48.774;9.280;2024-01-15T03:51:20;-0.60;99.90
56103;DHT22;41970;48.774;9.280;2024-01-15T03:53:46;-0.60;99.90
56103;DHT22;41970;48.774;9.280;2024-01-15T03:56:12;-0.60;99.90
56103;DHT22;41970;48.774;9.280;2024-01-15T03:58:41;-0.60;99.90
56103;DHT22;41970;48.774;9.280;2024-01-15T04:01:09;-0.60;99.90
56103;DHT22;41970;48.774;9.280;2024-01-15T04:03:36;-0.60;99.90
56103;DHT22;41970;48.774;9.280;2024-01-15T04:06:02;-0.70;99.90
56103;DHT22;41970;48.774;9.280;2024-01-15T04:08:28;-0.70;99.90
56103;DHT22;41970;48.774;9.280;2024-01-15T04:10:54;-0.60;99.90
56103;DHT22;41970;48.774;9.280;2024-01-15T04:13:20;-0.60;99.90
56103;DHT22;41970;48.774;9.280;2024-01-15T04:15:46;-0.50;99.90
56103;DHT22;41970;48.774;9.280;2024-01-15T04:18:12;-0.50;99.90
56103;DHT22;41970;48.774;9.280;2024-01-15T04:20:38;-0.40;99.90
56103;DHT22;41970;48.774;9.280;2024-01-15T04:23:04;-0.50;99.90
56103;DHT22;41970;48.774;9.280;2024-01-15T04:25:30;-0.50;99.90
56103;DHT22;41970;48.774;9.280;2024-01-15T04:27:56;-0.50;99.90
56103;DHT22;41970;48.774;9.280;2024-01-15T04:30:22;-0.60;99.90
56103;DHT22;41970;48.774;9.280;2024-01-15T04:32:47;-0.60;99.90
56103;DHT22;41970;48.774;9.280;2024-01-15T04:35:13;-0.60;99.90
56103;DHT22;41970;48.774;9.280;2024-01-15T04:37:42;-0.60;99.90
56103;DHT22;41970;48.774;9.280;2024-01-15T04:40:09;-0.40;99.90
56103;DHT22;41970;48.774;9.280;2024-01-15T04:42:35;-0.40;99.90
56103;DHT22;41970;48.774;9.280;2024-01-15T04:45:00;-0.40;99.90
56103;DHT22;41970;48.774;9.280;2024-01-15T04:47:26;-0.40;99.90
56103;DHT22;41970;48.774;9.280;2024-01-15T04:49:52;-0.50;99.90
56103;DHT22;41970;48.774;9.280;2024-01-15T04:52:18;-0.60;99.90
56103;DHT22;41970;48.774;9.280;2024-01-15T04:54:44;-0.50;99.90
56103;DHT22;41970;48.774;9.280;2024-01-15T04:57:10;-0.50;99.90
56103;DHT22;41970;48.774;9.280;2024-01-15T04:59:35;-0.40;99.90
56103;DHT22;41970;48.774;9.280;2024-01-15T05:02:02;-0.40;99.90
56103;DHT22;41970;48.774;9.280;2024-01-15T05:04:28;-0.40;99.90
56103;DHT22;41970;48.774;9.280;2024-01-15T05:06:55;-0.40;99.90
56103;DHT22;41970;48.774;9.280;2024-01-15T05:09:21;-0.60;99.90
56103;DHT22;41970;48.774;9.280;2024-01-15T05:11:46;-0.50;99.90
56103;DHT22;41970;48.774;9.280;2024-01-15T05:14:12;-0.20;99.90
56103;DHT22;41970;48.774;9.280;2024-01-15T05:16:39;0.00;99.90
56103;DHT22;41970;48.774;9.280;2024-01-15T05:19:07;0.00;99.90
56103;DHT22;41970;48.774;9.280;2024-01-15T05:21:33;0.10;99.90
56103;DHT22;41970;48.774;9.280;2024-01-15T05:23:58;0.30;99.90
56103;DHT22;41970;48.774;9.280;2024-01-15T05:26:24;0.50;99.90
56103;DHT22;41970;48.774;9.280;2024-01-15T05:28:50;0.60;99.90
56103;DHT22;41970;48.774;9.280;2024-01-15T05:31:16;0.70;99.90
56103;DHT22;41970;48.774;9.280;2024-01-15T05:33:42;0.70;99.90
56103;DHT22;41970;48.774;9.280;2024-01-15T05:36:07;0.80;99.90
56103;DHT22;41970;48.774;9.280;2024-01-15T05:38:33;0.80;99.90
56103;DHT22;41970;48.774;9.280;2024-01-15T05:40:59;0.80;99.90
56103;DHT22;41970;48.774;9.280;2024-01-15T05:43:25;0.90;99.90
56103;DHT22;41970;48.774;9.280;2024-01-15T05:45:50;0.90;99.90
56103;DHT22;41970;48.774;9.280;2024-01-15T05:48:16;0.90;99.90
56103;DHT22;41970;48.774;9.280;2024-01-15T05:50:42;0.90;99.90
56103;DHT22;41970;48.774;9.280;2024-01-15T05:53:08;0.90;99.90
56103;DHT22;41970;48.774;9.280;2024-01-15T05:55:36;0.90;99.90
56103;DHT22;41970;48.774;9.280;2024-01-15T05:58:05;1.00;99.90
56103;DHT22;41970;48.774;9.280;2024-01-15T06:00:31;1.00;99.90
56103;DHT22;41970;48.774;9.280;2024-01-15T06:02:58;1.00;99.90
56103;DHT22;41970;48.774;9.280;2024-01-15T06:05:25;1.00;99.90
56103;DHT22;41970;48.774;9.280;2024-01-15T06:07:51;1.00;99.90
56103;DHT22;41970;48.774;9.280;2024-01-15T06:10:17;0.90;99.90
56103;DHT22;41970;48.774;9.280;2024-01-15T06:12:43;1.00;99.90
56103;DHT22;41970;48.774;9.280;2024-01-15T06:15:10;1.10;99.90
56103;DHT22;41970;48.774;9.280;2024-01-15T06:17:36;1.10;99.90
56103;DHT22;41970;48.774;9.280;2024-01-15T06:20:02;1.10;99.90
56103;DHT22;41970;48.774;9.280;2024-01-15T06:22:28;1.20;99.90
56103;DHT22;41970;48.774;9.280;2024-01-15T06:24:54;1.20;99.90
56103;DHT22;41970;48.774;9.280;2024-01-15T06:27:21;1.20;99.90
56103;DHT22;41970;48.774;9.280;2024-01-15T06:29:47;1.20;99.90
56103;DHT22;41970;48.774;9.280;2024-01-15T06:32:13;1.20;99.90
56103;DHT22;41970;48.774;9.280;2024-01-15T06:34:39;1.20;99.90
56103;DHT22;41970;48.774;9.280;2024-01-15T06:37:06;1.20;99.90
56103;DHT22;41970;48.774;9.280;2024-01-15T06:39:31;1.30;99.90
56103;DHT22;41970;48.774;9.280;2024-01-15T06:41:57;1.20;99.90
56103;DHT22;41970;48.774;9.280;2024-01-15T06:44:23;1.20;99.90
56103;DHT22;41970;48.774;9.280;2024-01-15T06:46:49;1.10;99.90
56103;DHT22;41970;48.774;9.280;2024-01-15T06:49:15;1.20;99.90
56103;DHT22;41970;48.774;9.280;2024-01-15T06:51:40;1.20;99.90
56103;DHT22;41970;48.774;9.280;2024-01-15T06:54:07;1.20;99.90
56103;DHT22;41970;48.774;9.280;2024-01-15T06:56:33;1.20;99.90
56103;DHT22;41970;48.774;9.280;2024-01-15T06:58:58;1.20;99.90
56103;DHT22;41970;48.774;9.280;2024-01-15T07:01:24;1.20;99.90
56103;DHT22;41970;48.774;9.280;2024-01-15T07:03:50;1.20;99.90
56103;DHT22;41970;48.774;9.280;2024-01-15T07:06:16;1.30;99.90
56103;DHT22;41970;48.774;9.280;2024-01-15T07:08:42;1.40;99.90
56103;DHT22;41970;48.774;9.280;2024-01-15T07:11:08;1.40;99.90
56103;DHT22;41970;48.774;9.280;2024-01-15T07:13:35;1.40;99.90
56103;DHT22;41970;48.774;9.280;2024-01-15T07:16:01;1.40;99.90
56103;DHT22;41970;48.774;9.280;2024-01-15T07:18:27;1.40;99.90
56103;DHT22;41970;48.774;9.280;2024-01-15T07:20:53;1.40;99.90
56103;DHT22;41970;48.774;9.280;2024-01-15T07:23:19;1.40;99.90
56103;DHT22;41970;48.774;9.280;2024-01-15T07:25:45;1.40;99.90
56103;DHT22;41970;48.774;9.280;2024-01-15T07:28:11;1.50;99.90
56103;DHT22;41970;48.774;9.280;2024-01-15T07:30:36;1.50;99.90
56103;DHT22;41970;48.774;9.280;2024-01-15T07:33:05;1.40;99.90
56103;DHT22;41970;48.774;9.280;2024-01-15T07:35:31;1.50;99.90
56103;DHT22;41970;48.774;9.280;2024-01-15T07:37:57;1.50;99.90
56103;DHT22;41970;48.774;9.280;2024-01-15T07:40:23;1.50;99.90
56103;DHT22;41970;48.774;9.280;2024-01-15T07:42:50;1.50;99.90
56103;DHT22;41970;48.774;9.280;2024-01-15T07:45:16;1.50;99.90
56103;DHT22;41970;48.774;9.280;2024-01-15T07:47:43;1.50;99.90
56103;DHT22;41970;48.774;9.280;2024-01-15T07:50:08;1.50;99.90
56103;DHT22;41970;48.774;9.280;2024-01-15T07:52:34;1.50;99.90
56103;DHT22;41970;48.774;9.280;2024-01-15T07:55:00;1.60;99.90
56103;DHT22;41970;48.774;9.280;2024-01-15T07:57:26;1.60;99.90
56103;DHT22;41970;48.774;9.280;2024-01-15T07:59:52;1.70;99.90
56103;DHT22;41970;48.774;9.280;2024-01-15T08:02:18;1.80;99.90
56103;DHT22;41970;48.774;9.280;2024-01-15T08:04:43;1.80;99.90
56103;DHT22;41970;48.774;9.280;2024-01-15T08:07:10;1.80;99.90
56103;DHT22;41970;48.774;9.280;2024-01-15T08:09:36;1.80;99.90
56103;DHT22;41970;48.774;9.280;2024-01-15T08:12:02;1.70;99.90
56103;DHT22;41970;48.774;9.280;2024-01-15T08:14:28;1.80;99.90
56103;DHT22;41970;48.774;9.280;2024-01-15T08:16:54;1.90;99.90
56103;DHT22;41970;48.774;9.280;2024-01-15T08:19:20;1.90;99.90
56103;DHT22;41970;48.774;9.280;2024-01-15T08:21:45;1.90;99.90
56103;DHT22;41970;48.774;9.280;2024-01-15T08:24:11;1.80;99.50
56103;DHT22;41970;48.774;9.280;2024-01-15T08:26:37;1.90;99.50
56103;DHT22;41970;48.774;9.280;2024-01-15T08:29:03;1.90;99.40
56103;DHT22;41970;48.774;9.280;2024-01-15T08:31:29;1.80;99.30
56103;DHT22;41970;48.774;9.280;2024-01-15T08:33:54;1.80;99.50
56103;DHT22;41970;48.774;9.280;2024-01-15T08:36:21;1.80;99.30
56103;DHT22;41970;48.774;9.280;2024-01-15T08:38:47;1.80;99.30
56103;DHT22;41970;48.774;9.280;2024-01-15T08:41:13;1.90;99.50
56103;DHT22;41970;48.774;9.280;2024-01-15T08:43:39;1.80;99.80
56103;DHT22;41970;48.774;9.280;2024-01-15T08:46:05;1.80;99.20
56103;DHT22;41970;48.774;9.280;2024-01-15T08:48:31;1.90;99.50
56103;DHT22;41970;48.774;9.280;2024-01-15T08:50:57;1.90;99.50
56103;DHT22;41970;48.774;9.280;2024-01-15T08:53:22;2.00;99.40
56103;DHT22;41970;48.774;9.280;2024-01-15T08:55:48;2.00;98.90
56103;DHT22;41970;48.774;9.280;2024-01-15T08:58:14;2.00;99.10
56103;DHT22;41970;48.774;9.280;2024-01-15T09:00:40;1.90;98.50
56103;DHT22;41970;48.774;9.280;2024-01-15T09:03:06;1.90;98.80
56103;DHT22;41970;48.774;9.280;2024-01-15T09:05:33;2.00;98.60
56103;DHT22;41970;48.774;9.280;2024-01-15T09:07:59;2.10;98.40
56103;DHT22;41970;48.774;9.280;2024-01-15T09:10:25;2.20;98.40
56103;DHT22;41970;48.774;9.280;2024-01-15T09:12:51;2.10;98.40
56103;DHT22;41970;48.774;9.280;2024-01-15T09:15:17;2.10;98.40
56103;DHT22;41970;48.774;9.280;2024-01-15T09:17:43;2.00;98.10
56103;DHT22;41970;48.774;9.280;2024-01-15T09:20:09;2.10;98.20
56103;DHT22;41970;48.774;9.280;2024-01-15T09:22:37;2.10;98.10
56103;DHT22;41970;48.774;9.280;2024-01-15T09:25:04;2.20;98.30
56103;DHT22;41970;48.774;9.280;2024-01-15T09:27:30;2.30;98.10
56103;DHT22;41970;48.774;9.280;2024-01-15T09:29:56;2.30;97.70
56103;DHT22;41970;48.774;9.280;2024-01-15T09:32:22;2.30;97.80
56103;DHT22;41970;48.774;9.280;2024-01-15T09:34:48;2.40;97.90
56103;DHT22;41970;48.774;9.280;2024-01-15T09:37:14;2.40;97.80
56103;DHT22;41970;48.774;9.280;2024-01-15T09:39:41;2.50;97.90
56103;DHT22;41970;48.774;9.280;2024-01-15T09:42:07;2.60;98.30
56103;DHT22;41970;48.774;9.280;2024-01-15T09:44:33;2.60;97.80
56103;DHT22;41970;48.774;9.280;2024-01-15T09:47:00;2.70;98.40
56103;DHT22;41970;48.774;9.280;2024-01-15T09:49:26;2.80;97.90
56103;DHT22;41970;48.774;9.280;2024-01-15T09:51:54;2.80;97.80
56103;DHT22;41970;48.774;9.280;2024-01-15T09:54:20;2.80;97.20
56103;DHT22;41970;48.774;9.280;2024-01-15T09:56:47;2.60;97.90
56103;DHT22;41970;48.774;9.280;2024-01-15T09:59:17;2.70;97.90
56103;DHT22;41970;48.774;9.280;2024-01-15T10:01:44;2.80;98.30
56103;DHT22;41970;48.774;9.280;2024-01-15T10:04:11;2.80;97.90
56103;DHT22;41970;48.774;9.280;2024-01-15T10:06:45;2.60;97.90
56103;DHT22;41970;48.774;9.280;2024-01-15T10:09:12;2.50;98.00
56103;DHT22;41970;48.774;9.280;2024-01-15T10:11:42;2.50;97.90
56103;DHT22;41970;48.774;9.280;2024-01-15T10:14:09;2.60;98.10
56103;DHT22;41970;48.774;9.280;2024-01-15T10:16:41;2.60;98.20
56103;DHT22;41970;48.774;9.280;2024-01-15T10:19:08;2.70;98.30
56103;DHT22;41970;48.774;9.280;2024-01-15T10:21:34;2.70;97.90
56103;DHT22;41970;48.774;9.280;2024-01-15T10:24:01;2.60;97.80
56103;DHT22;41970;48.774;9.280;2024-01-15T10:26:28;2.40;98.00
56103;DHT22;41970;48.774;9.280;2024-01-15T10:28:54;2.30;98.50
56103;DHT22;41970;48.774;9.280;2024-01-15T10:31:20;2.40;98.20
56103;DHT22;41970;48.774;9.280;2024-01-15T10:33:50;2.40;98.40
56103;DHT22;41970;48.774;9.280;2024-01-15T10:36:17;2.50;98.20
56103;DHT22;41970;48.774;9.280;2024-01-15T10:38:46;2.50;98.00
56103;DHT22;41970;48.774;9.280;2024-01-15T10:41:12;2.50;98.20
56103;DHT22;41970;48.774;9.280;2024-01-15T10:43:38;2.50;98.70
56103;DHT22;41970;48.774;9.280;2024-01-15T10:46:06;2.70;98.60
56103;DHT22;41970;48.774;9.280;2024-01-15T10:48:33;2.80;97.90
56103;DHT22;41970;48.774;9.280;2024-01-15T10:51:01;2.90;97.60
56103;DHT22;41970;48.774;9.280;2024-01-15T10:53:29;2.90;97.70
56103;DHT22;41970;48.774;9.280;2024-01-15T10:55:57;2.90;97.40
56103;DHT22;41970;48.774;9.280;2024-01-15T10:58:24;3.00;97.50
56103;DHT22;41970;48.774;9.280;2024-01-15T11:00:54;3.00;97.90
56103;DHT22;41970;48.774;9.280;2024-01-15T11:03:21;3.00;97.70
56103;DHT22;41970;48.774;9.280;2024-01-15T11:05:47;3.10;97.80
56103;DHT22;41970;48.774;9.280;2024-01-15T11:08:13;3.10;97.70
56103;DHT22;41970;48.774;9.280;2024-01-15T11:10:48;3.10;97.60
56103;DHT22;41970;48.774;9.280;2024-01-15T11:16:09;3.00;98.00
56103;DHT22;41970;48.774;9.280;2024-01-15T11:18:41;3.00;98.10
56103;DHT22;41970;48.774;9.280;2024-01-15T11:23:48;2.70;98.00
56103;DHT22;41970;48.774;9.280;2024-01-15T11:29:10;2.50;99.30
56103;DHT22;41970;48.774;9.280;2024-01-15T11:34:10;2.30;99.90
56103;DHT22;41970;48.774;9.280;2024-01-15T11:41:58;2.40;99.90
56103;DHT22;41970;48.774;9.280;2024-01-15T11:44:25;2.40;99.90
56103;DHT22;41970;48.774;9.280;2024-01-15T11:52:11;2.60;99.90
56103;DHT22;41970;48.774;9.280;2024-01-15T11:54:38;2.60;99.90
56103;DHT22;41970;48.774;9.280;2024-01-15T11:57:18;2.60;99.90
56103;DHT22;41970;48.774;9.280;2024-01-15T11:59:48;2.50;99.90
56103;DHT22;41970;48.774;9.280;2024-01-15T12:02:14;2.60;99.90
56103;DHT22;41970;48.774;9.280;2024-01-15T12:04:40;2.60;99.90
56103;DHT22;41970;48.774;9.280;2024-01-15T12:07:05;2.50;99.90
56103;DHT22;41970;48.774;9.280;2024-01-15T12:09:31;2.60;99.90
56103;DHT22;41970;48.774;9.280;2024-01-15T12:12:06;2.50;99.90
56103;DHT22;41970;48.774;9.280;2024-01-15T12:14:33;2.40;99.90
56103;DHT22;41970;48.774;9.280;2024-01-15T12:17:00;2.40;99.90
56103;DHT22;41970;48.774;9.280;2024-01-15T12:19:26;2.30;99.90
56103;DHT22;41970;48.774;9.280;2024-01-15T12:21:52;2.30;99.90
56103;DHT22;41970;48.774;9.280;2024-01-15T12:24:18;2.40;99.90
56103;DHT22;41970;48.774;9.280;2024-01-15T12:26:44;2.40;99.90
56103;DHT22;41970;48.774;9.280;2024-01-15T12:29:11;2.40;99.90
56103;DHT22;41970;48.774;9.280;2024-01-15T12:31:37;2.30;99.90
56103;DHT22;41970;48.774;9.280;2024-01-15T12:34:03;2.30;99.90
56103;DHT22;41970;48.774;9.280;2024-01-15T12:36:32;2.20;99.90
56103;DHT22;41970;48.774;9.280;2024-01-15T12:39:00;2.20;99.90
56103;DHT22;41970;48.774;9.280;2024-01-15T12:41:26;2.20;99.90
56103;DHT22;41970;48.774;9.280;2024-01-15T12:43:52;2.20;99.90
56103;DHT22;41970;48.774;9.280;2024-01-15T12:46:18;2.20;99.90
56103;DHT22;41970;48.774;9.280;2024-01-15T12:48:45;2.30;99.90
56103;DHT22;41970;48.774;9.280;2024-01-15T12:51:10;2.20;99.90
56103;DHT22;41970;48.774;9.280;2024-01-15T12:53:36;2.10;99.90
56103;DHT22;41970;48.774;9.280;2024-01-15T12:56:02;2.10;99.90
56103;DHT22;41970;48.774;9.280;2024-01-15T12:58:28;2.20;99.90
56103;DHT22;41970;48.774;9.280;2024-01-15T13:00:54;2.10;99.90
56103;DHT22;41970;48.774;9.280;2024-01-15T13:03:20;2.10;99.90
56103;DHT22;41970;48.774;9.280;2024-01-15T13:05:48;2.10;99.90
56103;DHT22;41970;48.774;9.280;2024-01-15T13:08:14;2.10;99.90
56103;DHT22;41970;48.774;9.280;2024-01-15T13:10:40;2.10;99.90
56103;DHT22;41970;48.774;9.280;2024-01-15T13:13:07;2.20;99.90
56103;DHT22;41970;48.774;9.280;2024-01-15T13:15:33;2.10;99.90
56103;DHT22;41970;48.774;9.280;2024-01-15T13:17:59;2.20;99.90
56103;DHT22;41970;48.774;9.280;2024-01-15T13:20:25;2.30;99.90
56103;DHT22;41970;48.774;9.280;2024-01-15T13:22:50;2.50;99.90
56103;DHT22;41970;48.774;9.280;2024-01-15T13:25:16;2.50;99.90
56103;DHT22;41970;48.774;9.280;2024-01-15T13:27:42;2.60;99.90
56103;DHT22;41970;48.774;9.280;2024-01-15T13:30:08;2.60;99.90
56103;DHT22;41970;48.774;9.280;2024-01-15T13:32:34;2.60;99.90
56103;DHT22;41970;48.774;9.280;2024-01-15T13:35:00;2.70;99.90
56103;DHT22;41970;48.774;9.280;2024-01-15T13:37:26;2.70;99.90
56103;DHT22;41970;48.774;9.280;2024-01-15T13:39:52;2.70;99.90
56103;DHT22;41970;48.774;9.280;2024-01-15T13:42:19;2.70;99.90
56103;DHT22;41970;48.774;9.280;2024-01-15T13:44:47;2.70;99.90
56103;DHT22;41970;48.774;9.280;2024-01-15T13:47:13;2.50;99.90
56103;DHT22;41970;48.774;9.280;2024-01-15T13:49:39;2.50;99.90
56103;DHT22;41970;48.774;9.280;2024-01-15T13:52:04;2.40;99.90
56103;DHT22;41970;48.774;9.280;2024-01-15T13:54:31;2.40;99.90
56103;DHT22;41970;48.774;9.280;2024-01-15T13:56:56;2.40;99.90
56103;DHT22;41970;48.774;9.280;2024-01-15T13:59:24;2.40;99.90
56103;DHT22;41970;48.774;9.280;2024-01-15T14:01:50;2.50;99.90
56103;DHT22;41970;48.774;9.280;2024-01-15T14:04:16;2.40;99.90
56103;DHT22;41970;48.774;9.280;2024-01-15T14:06:42;2.30;99.90
56103;DHT22;41970;48.774;9.280;2024-01-15T14:09:07;2.20;99.90
56103;DHT22;41970;48.774;9.280;2024-01-15T14:11:36;2.30;99.90
56103;DHT22;41970;48.774;9.280;2024-01-15T14:14:03;2.30;99.90
56103;DHT22;41970;48.774;9.280;2024-01-15T14:16:29;2.50;99.90
56103;DHT22;41970;48.774;9.280;2024-01-15T14:18:55;2.50;99.90
56103;DHT22;41970;48.774;9.280;2024-01-15T14:21:20;2.70;99.90
56103;DHT22;41970;48.774;9.280;2024-01-15T14:23:46;2.70;99.90
56103;DHT22;41970;48.774;9.280;2024-01-15T14:26:12;2.60;99.90
56103;DHT22;41970;48.774;9.280;2024-01-15T14:28:38;2.60;99.90
56103;DHT22;41970;48.774;9.280;2024-01-15T14:31:04;2.60;99.90
56103;DHT22;41970;48.774;9.280;2024-01-15T14:33:31;2.70;99.90
56103;DHT22;41970;48.774;9.280;2024-01-15T14:35:57;2.80;99.90
56103;DHT22;41970;48.774;9.280;2024-01-15T14:38:23;2.70;99.90
56103;DHT22;41970;48.774;9.280;2024-01-15T14:40:49;2.80;99.90
56103;DHT22;41970;48.774;9.280;2024-01-15T14:43:15;2.80;99.90
56103;DHT22;41970;48.774;9.280;2024-01-15T14:45:41;2.60;99.90
56103;DHT22;41970;48.774;9.280;2024-01-15T14:48:07;2.50;99.90
56103;DHT22;41970;48.774;9.280;2024-01-15T14:50:32;2.40;99.90
56103;DHT22;41970;48.774;9.280;2024-01-15T14:52:58;2.20;99.90
56103;DHT22;41970;48.774;9.280;2024-01-15T14:55:24;2.00;99.90
56103;DHT22;41970;48.774;9.280;2024-01-15T14:57:50;2.10;99.90
56103;DHT22;41970;48.774;9.280;2024-01-15T15:00:18;2.10;99.90
56103;DHT22;41970;48.774;9.280;2024-01-15T15:02:44;2.00;99.90
56103;DHT22;41970;48.774;9.280;2024-01-15T15:05:10;1.80;99.90
56103;DHT22;41970;48.774;9.280;2024-01-15T15:07:36;1.80;99.90
56103;DHT22;41970;48.774;9.280;2024-01-15T15:10:02;1.90;99.90
56103;DHT22;41970;48.774;9.280;2024-01-15T15:12:30;1.90;99.90
56103;DHT22;41970;48.774;9.280;2024-01-15T15:14:56;1.90;99.90
56103;DHT22;41970;48.774;9.280;2024-01-15T15:17:22;1.90;99.90
56103;DHT22;41970;48.774;9.280;2024-01-15T15:19:48;1.70;99.90
56103;DHT22;41970;48.774;9.280;2024-01-15T15:22:14;1.60;99.90
56103;DHT22;41970;48.774;9.280;2024-01-15T15:24:39;1.60;99.90
56103;DHT22;41970;48.774;9.280;2024-01-15T15:27:05;1.60;99.90
56103;DHT22;41970;48.774;9.280;2024-01-15T15:29:34;1.60;99.90
56103;DHT22;41970;48.774;9.280;2024-01-15T15:32:01;1.50;99.90
56103;DHT22;41970;48.774;9.280;2024-01-15T15:34:28;1.60;99.90
56103;DHT22;41970;48.774;9.280;2024-01-15T15:36:53;1.60;99.90
56103;DHT22;41970;48.774;9.280;2024-01-15T15:39:19;1.70;99.90
56103;DHT22;41970;48.774;9.280;2024-01-15T15:41:45;1.70;99.90
56103;DHT22;41970;48.774;9.280;2024-01-15T15:44:11;1.70;99.90
56103;DHT22;41970;48.774;9.280;2024-01-15T15:46:40;1.60;99.90
56103;DHT22;41970;48.774;9.280;2024-01-15T15:49:06;1.60;99.90
56103;DHT22;41970;48.774;9.280;2024-01-15T15:51:33;1.60;99.90
56103;DHT22;41970;48.774;9.280;2024-01-15T15:53:59;1.60;99.90
56103;DHT22;41970;48.774;9.280;2024-01-15T15:56:24;1.40;99.90
56103;DHT22;41970;48.774;9.280;2024-01-15T15:58:54;1.40;99.90